sensor_id;sensor_type;location;lat;lon;timestamp;P1;durP1;ratioP1;P2;durP2;ratioP2
20482;SDS011;10400;53.198;6.592;2023-04-16T00:00:11;80.90;;;31.27;;
20482;SDS011;10400;53.198;6.592;2023-04-16T00:02:37;77.05;;;29.02;;
20482;SDS011;10400;53.198;6.592;2023-04-16T00:05:03;84.78;;;30.92;;
20482;SDS011;10400;53.198;6.592;2023-04-16T00:07:28;81.03;;;29.65;;
20482;SDS011;10400;53.198;6.592;2023-04-16T00:09:54;83.43;;;29.80;;
20482;SDS011;10400;53.198;6.592;2023-04-16T00:12:20;85.40;;;30.75;;
20482;SDS011;10400;53.198;6.592;2023-04-16T00:14:46;81.20;;;31.70;;
20482;SDS011;10400;53.198;6.592;2023-04-16T00:17:11;88.50;;;30.45;;
20482;SDS011;10400;53.198;6.592;2023-04-16T00:19:37;82.03;;;30.85;;
20482;SDS011;10400;53.198;6.592;2023-04-16T00:22:02;77.80;;;30.77;;
20482;SDS011;10400;53.198;6.592;2023-04-16T00:24:28;83.28;;;30.40;;
20482;SDS011;10400;53.198;6.592;2023-04-16T00:26:54;71.85;;;31.92;;
20482;SDS011;10400;53.198;6.592;2023-04-16T00:29:20;79.82;;;31.63;;
20482;SDS011;10400;53.198;6.592;2023-04-16T00:31:46;77.28;;;31.38;;
20482;SDS011;10400;53.198;6.592;2023-04-16T00:34:11;78.30;;;30.00;;
20482;SDS011;10400;53.198;6.592;2023-04-16T00:36:37;72.03;;;31.00;;
20482;SDS011;10400;53.198;6.592;2023-04-16T00:39:03;77.90;;;31.50;;
20482;SDS011;10400;53.198;6.592;2023-04-16T00:41:28;75.00;;;32.05;;
20482;SDS011;10400;53.198;6.592;2023-04-16T00:43:54;79.55;;;32.85;;
20482;SDS011;10400;53.198;6.592;2023-04-16T00:46:20;79.63;;;32.00;;
20482;SDS011;10400;53.198;6.592;2023-04-16T00:48:47;78.93;;;33.30;;
20482;SDS011;10400;53.198;6.592;2023-04-16T00:51:15;72.60;;;31.73;;
20482;SDS011;10400;53.198;6.592;2023-04-16T00:53:44;70.45;;;32.17;;
20482;SDS011;10400;53.198;6.592;2023-04-16T00:56:11;76.80;;;32.92;;
20482;SDS011;10400;53.198;6.592;2023-04-16T00:58:37;75.97;;;33.80;;
20482;SDS011;10400;53.198;6.592;2023-04-16T01:01:03;84.20;;;34.83;;
20482;SDS011;10400;53.198;6.592;2023-04-16T01:03:41;80.22;;;33.97;;
20482;SDS011;10400;53.198;6.592;2023-04-16T01:06:08;73.05;;;34.25;;
20482;SDS011;10400;53.198;6.592;2023-04-16T01:08:34;87.50;;;36.60;;
20482;SDS011;10400;53.198;6.592;2023-04-16T01:11:00;76.80;;;34.65;;
20482;SDS011;10400;53.198;6.592;2023-04-16T01:13:26;78.57;;;34.50;;
20482;SDS011;10400;53.198;6.592;2023-04-16T01:15:51;80.43;;;35.88;;
20482;SDS011;10400;53.198;6.592;2023-04-16T01:18:18;75.55;;;32.60;;
20482;SDS011;10400;53.198;6.592;2023-04-16T01:20:45;80.57;;;33.70;;
20482;SDS011;10400;53.198;6.592;2023-04-16T01:23:11;71.38;;;32.40;;
20482;SDS011;10400;53.198;6.592;2023-04-16T01:25:38;81.82;;;33.22;;
20482;SDS011;10400;53.198;6.592;2023-04-16T01:28:04;85.75;;;34.05;;
20482;SDS011;10400;53.198;6.592;2023-04-16T01:30:30;92.82;;;34.13;;
20482;SDS011;10400;53.198;6.592;2023-04-16T01:32:55;82.32;;;33.95;;
20482;SDS011;10400;53.198;6.592;2023-04-16T01:35:22;80.03;;;31.55;;
20482;SDS011;10400;53.198;6.592;2023-04-16T01:37:48;89.47;;;31.00;;
20482;SDS011;10400;53.198;6.592;2023-04-16T01:40:15;83.22;;;31.70;;
20482;SDS011;10400;53.198;6.592;2023-04-16T01:42:41;72.57;;;32.10;;
20482;SDS011;10400;53.198;6.592;2023-04-16T01:45:07;80.65;;;30.70;;
20482;SDS011;10400;53.198;6.592;2023-04-16T01:47:32;75.32;;;30.67;;
20482;SDS011;10400;53.198;6.592;2023-04-16T01:49:58;65.43;;;30.25;;
20482;SDS011;10400;53.198;6.592;2023-04-16T01:52:25;75.63;;;30.17;;
20482;SDS011;10400;53.198;6.592;2023-04-16T01:54:50;78.03;;;31.02;;
20482;SDS011;10400;53.198;6.592;2023-04-16T01:57:16;74.78;;;31.50;;
20482;SDS011;10400;53.198;6.592;2023-04-16T01:59:41;58.97;;;29.27;;
20482;SDS011;10400;53.198;6.592;2023-04-16T02:02:11;72.35;;;30.30;;
20482;SDS011;10400;53.198;6.592;2023-04-16T02:04:39;76.70;;;29.50;;
20482;SDS011;10400;53.198;6.592;2023-04-16T02:07:06;67.63;;;31.17;;
20482;SDS011;10400;53.198;6.592;2023-04-16T02:09:35;67.00;;;31.20;;
20482;SDS011;10400;53.198;6.592;2023-04-16T02:12:02;76.70;;;32.63;;
20482;SDS011;10400;53.198;6.592;2023-04-16T02:14:29;82.65;;;33.35;;
20482;SDS011;10400;53.198;6.592;2023-04-16T02:16:55;87.55;;;34.85;;
20482;SDS011;10400;53.198;6.592;2023-04-16T02:19:21;90.13;;;35.95;;
20482;SDS011;10400;53.198;6.592;2023-04-16T02:21:46;90.25;;;34.47;;
20482;SDS011;10400;53.198;6.592;2023-04-16T02:24:13;86.00;;;34.88;;
20482;SDS011;10400;53.198;6.592;2023-04-16T02:26:39;103.00;;;35.50;;
20482;SDS011;10400;53.198;6.592;2023-04-16T02:29:04;92.85;;;36.67;;
20482;SDS011;10400;53.198;6.592;2023-04-16T02:31:30;97.03;;;36.95;;
20482;SDS011;10400;53.198;6.592;2023-04-16T02:33:56;91.28;;;37.80;;
20482;SDS011;10400;53.198;6.592;2023-04-16T02:36:22;100.43;;;38.67;;
20482;SDS011;10400;53.198;6.592;2023-04-16T02:38:47;99.13;;;37.35;;
20482;SDS011;10400;53.198;6.592;2023-04-16T02:41:13;97.80;;;37.05;;
20482;SDS011;10400;53.198;6.592;2023-04-16T02:43:39;97.05;;;36.25;;
20482;SDS011;10400;53.198;6.592;2023-04-16T02:46:04;92.65;;;34.45;;
20482;SDS011;10400;53.198;6.592;2023-04-16T02:48:30;92.28;;;35.63;;
20482;SDS011;10400;53.198;6.592;2023-04-16T02:50:56;91.00;;;32.92;;
20482;SDS011;10400;53.198;6.592;2023-04-16T02:53:22;82.85;;;33.47;;
20482;SDS011;10400;53.198;6.592;2023-04-16T02:55:49;82.90;;;33.30;;
20482;SDS011;10400;53.198;6.592;2023-04-16T02:58:16;82.85;;;32.60;;
20482;SDS011;10400;53.198;6.592;2023-04-16T03:00:43;81.05;;;34.40;;
20482;SDS011;10400;53.198;6.592;2023-04-16T03:03:08;96.28;;;33.70;;
20482;SDS011;10400;53.198;6.592;2023-04-16T03:05:34;98.30;;;34.53;;
20482;SDS011;10400;53.198;6.592;2023-04-16T03:08:00;99.35;;;33.33;;
20482;SDS011;10400;53.198;6.592;2023-04-16T03:10:25;95.78;;;33.85;;
20482;SDS011;10400;53.198;6.592;2023-04-16T03:12:51;83.30;;;33.15;;
20482;SDS011;10400;53.198;6.592;2023-04-16T03:15:16;81.72;;;31.67;;
20482;SDS011;10400;53.198;6.592;2023-04-16T03:17:42;86.75;;;34.05;;
20482;SDS011;10400;53.198;6.592;2023-04-16T03:20:08;99.20;;;34.30;;
20482;SDS011;10400;53.198;6.592;2023-04-16T03:22:34;84.38;;;33.05;;
20482;SDS011;10400;53.198;6.592;2023-04-16T03:24:59;93.65;;;33.65;;
20482;SDS011;10400;53.198;6.592;2023-04-16T03:27:25;95.07;;;33.75;;
20482;SDS011;10400;53.198;6.592;2023-04-16T03:29:51;92.20;;;34.20;;
20482;SDS011;10400;53.198;6.592;2023-04-16T03:32:16;82.85;;;33.20;;
20482;SDS011;10400;53.198;6.592;2023-04-16T03:34:42;87.35;;;32.10;;
20482;SDS011;10400;53.198;6.592;2023-04-16T03:37:08;95.75;;;33.15;;
20482;SDS011;10400;53.198;6.592;2023-04-16T03:39:35;93.75;;;32.38;;
20482;SDS011;10400;53.198;6.592;2023-04-16T03:42:01;86.20;;;31.48;;
20482;SDS011;10400;53.198;6.592;2023-04-16T03:44:27;89.63;;;30.95;;
20482;SDS011;10400;53.198;6.592;2023-04-16T03:46:53;82.47;;;30.38;;
20482;SDS011;10400;53.198;6.592;2023-04-16T03:49:19;91.88;;;32.65;;
20482;SDS011;10400;53.198;6.592;2023-04-16T03:51:45;99.40;;;33.17;;
20482;SDS011;10400;53.198;6.592;2023-04-16T03:54:10;84.70;;;32.03;;
20482;SDS011;10400;53.198;6.592;2023-04-16T03:56:36;96.90;;;32.78;;
20482;SDS011;10400;53.198;6.592;2023-04-16T03:59:03;89.53;;;32.33;;
20482;SDS011;10400;53.198;6.592;2023-04-16T04:01:29;90.93;;;31.88;;
20482;SDS011;10400;53.198;6.592;2023-04-16T04:03:55;81.88;;;31.52;;
20482;SDS011;10400;53.198;6.592;2023-04-16T04:06:20;89.18;;;32.03;;
20482;SDS011;10400;53.198;6.592;2023-04-16T04:08:46;87.28;;;30.70;;
20482;SDS011;10400;53.198;6.592;2023-04-16T04:11:11;83.95;;;32.03;;
20482;SDS011;10400;53.198;6.592;2023-04-16T04:13:37;84.00;;;30.67;;
20482;SDS011;10400;53.198;6.592;2023-04-16T04:16:03;91.03;;;32.33;;
20482;SDS011;10400;53.198;6.592;2023-04-16T04:18:29;78.55;;;29.67;;
20482;SDS011;10400;53.198;6.592;2023-04-16T04:20:55;81.88;;;29.17;;
20482;SDS011;10400;53.198;6.592;2023-04-16T04:23:21;73.70;;;29.48;;
20482;SDS011;10400;53.198;6.592;2023-04-16T04:25:46;93.97;;;30.23;;
20482;SDS011;10400;53.198;6.592;2023-04-16T04:28:12;92.22;;;31.42;;
20482;SDS011;10400;53.198;6.592;2023-04-16T04:30:37;86.35;;;30.42;;
20482;SDS011;10400;53.198;6.592;2023-04-16T04:33:03;94.93;;;31.08;;
20482;SDS011;10400;53.198;6.592;2023-04-16T04:35:29;84.15;;;30.40;;
20482;SDS011;10400;53.198;6.592;2023-04-16T04:37:55;88.78;;;31.13;;
20482;SDS011;10400;53.198;6.592;2023-04-16T04:40:20;81.05;;;29.77;;
20482;SDS011;10400;53.198;6.592;2023-04-16T04:42:46;96.75;;;30.88;;
20482;SDS011;10400;53.198;6.592;2023-04-16T04:45:11;84.50;;;30.60;;
20482;SDS011;10400;53.198;6.592;2023-04-16T04:47:37;70.95;;;30.77;;
20482;SDS011;10400;53.198;6.592;2023-04-16T04:50:03;98.50;;;30.77;;
20482;SDS011;10400;53.198;6.592;2023-04-16T04:52:29;91.13;;;30.92;;
20482;SDS011;10400;53.198;6.592;2023-04-16T04:54:54;86.68;;;31.20;;
20482;SDS011;10400;53.198;6.592;2023-04-16T04:57:20;84.75;;;30.30;;
20482;SDS011;10400;53.198;6.592;2023-04-16T04:59:46;82.82;;;30.77;;
20482;SDS011;10400;53.198;6.592;2023-04-16T05:02:12;87.97;;;30.27;;
20482;SDS011;10400;53.198;6.592;2023-04-16T05:04:37;82.50;;;30.70;;
20482;SDS011;10400;53.198;6.592;2023-04-16T05:07:03;78.82;;;29.40;;
20482;SDS011;10400;53.198;6.592;2023-04-16T05:09:29;83.45;;;29.05;;
20482;SDS011;10400;53.198;6.592;2023-04-16T05:11:54;89.63;;;28.58;;
20482;SDS011;10400;53.198;6.592;2023-04-16T05:14:21;79.93;;;27.80;;
20482;SDS011;10400;53.198;6.592;2023-04-16T05:16:47;83.72;;;28.15;;
20482;SDS011;10400;53.198;6.592;2023-04-16T05:19:12;72.05;;;27.00;;
20482;SDS011;10400;53.198;6.592;2023-04-16T05:21:38;70.93;;;27.70;;
20482;SDS011;10400;53.198;6.592;2023-04-16T05:24:04;81.25;;;27.10;;
20482;SDS011;10400;53.198;6.592;2023-04-16T05:26:30;70.90;;;26.77;;
20482;SDS011;10400;53.198;6.592;2023-04-16T05:28:56;80.20;;;27.20;;
20482;SDS011;10400;53.198;6.592;2023-04-16T05:31:21;67.00;;;26.77;;
20482;SDS011;10400;53.198;6.592;2023-04-16T05:33:47;75.57;;;26.52;;
20482;SDS011;10400;53.198;6.592;2023-04-16T05:36:12;84.57;;;27.42;;
20482;SDS011;10400;53.198;6.592;2023-04-16T05:38:38;77.68;;;26.73;;
20482;SDS011;10400;53.198;6.592;2023-04-16T05:41:04;76.38;;;28.17;;
20482;SDS011;10400;53.198;6.592;2023-04-16T05:43:29;69.55;;;26.48;;
20482;SDS011;10400;53.198;6.592;2023-04-16T05:45:55;75.35;;;27.65;;
20482;SDS011;10400;53.198;6.592;2023-04-16T05:48:21;80.97;;;28.70;;
20482;SDS011;10400;53.198;6.592;2023-04-16T05:50:47;87.22;;;27.38;;
20482;SDS011;10400;53.198;6.592;2023-04-16T05:53:13;62.15;;;26.63;;
20482;SDS011;10400;53.198;6.592;2023-04-16T05:55:40;66.00;;;26.00;;
20482;SDS011;10400;53.198;6.592;2023-04-16T05:58:05;65.70;;;26.50;;
20482;SDS011;10400;53.198;6.592;2023-04-16T06:00:31;62.38;;;25.35;;
20482;SDS011;10400;53.198;6.592;2023-04-16T06:02:57;69.30;;;23.92;;
20482;SDS011;10400;53.198;6.592;2023-04-16T06:05:23;61.95;;;25.50;;
20482;SDS011;10400;53.198;6.592;2023-04-16T06:07:50;67.20;;;26.25;;
20482;SDS011;10400;53.198;6.592;2023-04-16T06:10:16;58.92;;;24.42;;
20482;SDS011;10400;53.198;6.592;2023-04-16T06:12:42;69.07;;;26.33;;
20482;SDS011;10400;53.198;6.592;2023-04-16T06:15:08;69.30;;;23.67;;
20482;SDS011;10400;53.198;6.592;2023-04-16T06:17:34;70.05;;;25.80;;
20482;SDS011;10400;53.198;6.592;2023-04-16T06:20:00;56.70;;;24.48;;
20482;SDS011;10400;53.198;6.592;2023-04-16T06:22:25;64.20;;;25.52;;
20482;SDS011;10400;53.198;6.592;2023-04-16T06:24:51;72.80;;;26.55;;
20482;SDS011;10400;53.198;6.592;2023-04-16T06:27:17;82.70;;;27.73;;
20482;SDS011;10400;53.198;6.592;2023-04-16T06:29:43;74.65;;;25.40;;
20482;SDS011;10400;53.198;6.592;2023-04-16T06:32:08;73.72;;;25.90;;
20482;SDS011;10400;53.198;6.592;2023-04-16T06:34:34;72.28;;;25.17;;
20482;SDS011;10400;53.198;6.592;2023-04-16T06:37:01;67.78;;;26.40;;
20482;SDS011;10400;53.198;6.592;2023-04-16T06:39:26;65.05;;;25.42;;
20482;SDS011;10400;53.198;6.592;2023-04-16T06:41:52;76.10;;;26.83;;
20482;SDS011;10400;53.198;6.592;2023-04-16T06:44:18;82.70;;;25.40;;
20482;SDS011;10400;53.198;6.592;2023-04-16T06:46:43;59.83;;;25.80;;
20482;SDS011;10400;53.198;6.592;2023-04-16T06:49:09;75.50;;;25.45;;
20482;SDS011;10400;53.198;6.592;2023-04-16T06:51:35;60.53;;;23.35;;
20482;SDS011;10400;53.198;6.592;2023-04-16T06:54:00;78.70;;;25.95;;
20482;SDS011;10400;53.198;6.592;2023-04-16T06:56:26;67.22;;;24.45;;
20482;SDS011;10400;53.198;6.592;2023-04-16T06:58:52;62.58;;;23.55;;
20482;SDS011;10400;53.198;6.592;2023-04-16T07:01:17;61.85;;;23.27;;
20482;SDS011;10400;53.198;6.592;2023-04-16T07:03:43;65.93;;;22.58;;
20482;SDS011;10400;53.198;6.592;2023-04-16T07:06:09;57.60;;;22.10;;
20482;SDS011;10400;53.198;6.592;2023-04-16T07:08:34;62.47;;;21.00;;
20482;SDS011;10400;53.198;6.592;2023-04-16T07:11:00;53.85;;;20.20;;
20482;SDS011;10400;53.198;6.592;2023-04-16T07:13:26;48.05;;;19.48;;
20482;SDS011;10400;53.198;6.592;2023-04-16T07:15:52;53.55;;;19.42;;
20482;SDS011;10400;53.198;6.592;2023-04-16T07:18:17;52.05;;;19.30;;
20482;SDS011;10400;53.198;6.592;2023-04-16T07:20:43;49.20;;;18.77;;
20482;SDS011;10400;53.198;6.592;2023-04-16T07:23:09;55.08;;;20.83;;
20482;SDS011;10400;53.198;6.592;2023-04-16T07:25:34;53.30;;;20.23;;
20482;SDS011;10400;53.198;6.592;2023-04-16T07:28:00;54.28;;;20.65;;
20482;SDS011;10400;53.198;6.592;2023-04-16T07:30:27;55.97;;;20.70;;
20482;SDS011;10400;53.198;6.592;2023-04-16T07:32:58;56.28;;;21.17;;
20482;SDS011;10400;53.198;6.592;2023-04-16T07:35:24;52.47;;;20.35;;
20482;SDS011;10400;53.198;6.592;2023-04-16T07:37:50;50.58;;;20.40;;
20482;SDS011;10400;53.198;6.592;2023-04-16T07:40:15;48.22;;;19.50;;
20482;SDS011;10400;53.198;6.592;2023-04-16T07:42:41;53.53;;;20.13;;
20482;SDS011;10400;53.198;6.592;2023-04-16T07:45:07;48.60;;;20.30;;
20482;SDS011;10400;53.198;6.592;2023-04-16T07:47:33;51.08;;;20.73;;
20482;SDS011;10400;53.198;6.592;2023-04-16T07:49:59;55.78;;;20.25;;
20482;SDS011;10400;53.198;6.592;2023-04-16T07:52:25;53.60;;;19.88;;
20482;SDS011;10400;53.198;6.592;2023-04-16T07:54:50;50.03;;;20.15;;
20482;SDS011;10400;53.198;6.592;2023-04-16T07:57:16;45.25;;;19.30;;
20482;SDS011;10400;53.198;6.592;2023-04-16T07:59:42;45.50;;;18.55;;
20482;SDS011;10400;53.198;6.592;2023-04-16T08:02:08;36.50;;;17.38;;
20482;SDS011;10400;53.198;6.592;2023-04-16T08:04:38;52.60;;;19.67;;
20482;SDS011;10400;53.198;6.592;2023-04-16T08:07:04;39.90;;;16.45;;
20482;SDS011;10400;53.198;6.592;2023-04-16T08:09:30;47.50;;;17.15;;
20482;SDS011;10400;53.198;6.592;2023-04-16T08:11:56;45.75;;;17.48;;
20482;SDS011;10400;53.198;6.592;2023-04-16T08:14:21;44.45;;;16.48;;
20482;SDS011;10400;53.198;6.592;2023-04-16T08:16:47;43.58;;;15.60;;
20482;SDS011;10400;53.198;6.592;2023-04-16T08:19:13;43.05;;;16.90;;
20482;SDS011;10400;53.198;6.592;2023-04-16T08:21:38;49.45;;;15.57;;
20482;SDS011;10400;53.198;6.592;2023-04-16T08:24:04;35.58;;;14.98;;
20482;SDS011;10400;53.198;6.592;2023-04-16T08:26:30;34.75;;;14.68;;
20482;SDS011;10400;53.198;6.592;2023-04-16T08:28:56;40.55;;;15.38;;
20482;SDS011;10400;53.198;6.592;2023-04-16T08:31:21;38.30;;;15.25;;
20482;SDS011;10400;53.198;6.592;2023-04-16T08:33:47;39.20;;;14.43;;
20482;SDS011;10400;53.198;6.592;2023-04-16T08:36:12;39.35;;;14.05;;
20482;SDS011;10400;53.198;6.592;2023-04-16T08:38:38;35.72;;;13.57;;
20482;SDS011;10400;53.198;6.592;2023-04-16T08:41:04;37.60;;;14.43;;
20482;SDS011;10400;53.198;6.592;2023-04-16T08:43:32;35.80;;;14.30;;
20482;SDS011;10400;53.198;6.592;2023-04-16T08:46:00;35.55;;;14.35;;
20482;SDS011;10400;53.198;6.592;2023-04-16T08:48:31;32.15;;;13.85;;
20482;SDS011;10400;53.198;6.592;2023-04-16T08:50:58;42.20;;;14.70;;
20482;SDS011;10400;53.198;6.592;2023-04-16T08:53:31;33.42;;;13.80;;
20482;SDS011;10400;53.198;6.592;2023-04-16T08:56:05;40.30;;;14.52;;
20482;SDS011;10400;53.198;6.592;2023-04-16T08:58:35;33.58;;;13.07;;
20482;SDS011;10400;53.198;6.592;2023-04-16T09:01:02;26.95;;;13.40;;
20482;SDS011;10400;53.198;6.592;2023-04-16T09:03:28;37.83;;;14.00;;
20482;SDS011;10400;53.198;6.592;2023-04-16T09:05:56;39.08;;;14.63;;
20482;SDS011;10400;53.198;6.592;2023-04-16T09:08:26;36.90;;;14.18;;
20482;SDS011;10400;53.198;6.592;2023-04-16T09:10:54;32.45;;;13.45;;
20482;SDS011;10400;53.198;6.592;2023-04-16T09:13:20;33.03;;;14.18;;
20482;SDS011;10400;53.198;6.592;2023-04-16T09:15:49;29.92;;;13.50;;
20482;SDS011;10400;53.198;6.592;2023-04-16T09:18:17;34.67;;;13.80;;
20482;SDS011;10400;53.198;6.592;2023-04-16T09:20:44;24.48;;;13.18;;
20482;SDS011;10400;53.198;6.592;2023-04-16T09:23:10;29.80;;;13.02;;
20482;SDS011;10400;53.198;6.592;2023-04-16T09:25:35;28.40;;;13.13;;
20482;SDS011;10400;53.198;6.592;2023-04-16T09:28:02;32.95;;;13.27;;
20482;SDS011;10400;53.198;6.592;2023-04-16T09:30:28;34.45;;;14.20;;
20482;SDS011;10400;53.198;6.592;2023-04-16T09:33:13;25.15;;;13.07;;
20482;SDS011;10400;53.198;6.592;2023-04-16T09:35:48;32.90;;;13.52;;
20482;SDS011;10400;53.198;6.592;2023-04-16T09:38:15;31.95;;;13.57;;
20482;SDS011;10400;53.198;6.592;2023-04-16T09:40:40;24.17;;;12.65;;
20482;SDS011;10400;53.198;6.592;2023-04-16T09:43:13;32.55;;;14.05;;
20482;SDS011;10400;53.198;6.592;2023-04-16T09:48:14;25.52;;;13.23;;
20482;SDS011;10400;53.198;6.592;2023-04-16T09:50:45;28.23;;;12.82;;
20482;SDS011;10400;53.198;6.592;2023-04-16T09:53:22;26.65;;;12.75;;
20482;SDS011;10400;53.198;6.592;2023-04-16T09:55:54;21.38;;;12.43;;
20482;SDS011;10400;53.198;6.592;2023-04-16T09:58:24;27.60;;;13.05;;
20482;SDS011;10400;53.198;6.592;2023-04-16T10:01:02;27.30;;;13.02;;
20482;SDS011;10400;53.198;6.592;2023-04-16T10:03:31;32.47;;;12.60;;
20482;SDS011;10400;53.198;6.592;2023-04-16T10:06:09;27.13;;;13.10;;
20482;SDS011;10400;53.198;6.592;2023-04-16T10:08:41;24.77;;;12.35;;
20482;SDS011;10400;53.198;6.592;2023-04-16T10:11:14;27.98;;;12.82;;
20482;SDS011;10400;53.198;6.592;2023-04-16T10:13:40;29.95;;;13.05;;
20482;SDS011;10400;53.198;6.592;2023-04-16T10:16:06;33.80;;;13.63;;
20482;SDS011;10400;53.198;6.592;2023-04-16T10:18:37;27.80;;;12.48;;
20482;SDS011;10400;53.198;6.592;2023-04-16T10:21:04;26.65;;;13.20;;
20482;SDS011;10400;53.198;6.592;2023-04-16T10:23:33;28.50;;;12.57;;
20482;SDS011;10400;53.198;6.592;2023-04-16T10:26:00;26.85;;;12.18;;
20482;SDS011;10400;53.198;6.592;2023-04-16T10:28:26;25.50;;;12.63;;
20482;SDS011;10400;53.198;6.592;2023-04-16T10:30:53;23.70;;;13.20;;
20482;SDS011;10400;53.198;6.592;2023-04-16T10:33:22;24.25;;;11.43;;
20482;SDS011;10400;53.198;6.592;2023-04-16T10:35:50;25.05;;;12.77;;
20482;SDS011;10400;53.198;6.592;2023-04-16T10:38:20;28.65;;;12.75;;
20482;SDS011;10400;53.198;6.592;2023-04-16T10:40:58;31.92;;;13.63;;
20482;SDS011;10400;53.198;6.592;2023-04-16T10:43:26;29.83;;;12.88;;
20482;SDS011;10400;53.198;6.592;2023-04-16T10:45:53;32.47;;;13.05;;
20482;SDS011;10400;53.198;6.592;2023-04-16T10:48:19;31.15;;;13.10;;
20482;SDS011;10400;53.198;6.592;2023-04-16T10:50:52;30.17;;;13.25;;
20482;SDS011;10400;53.198;6.592;2023-04-16T10:53:24;26.77;;;12.35;;
20482;SDS011;10400;53.198;6.592;2023-04-16T10:58:31;22.55;;;12.48;;
20482;SDS011;10400;53.198;6.592;2023-04-16T11:01:00;30.63;;;13.73;;
20482;SDS011;10400;53.198;6.592;2023-04-16T11:03:30;26.95;;;12.10;;
20482;SDS011;10400;53.198;6.592;2023-04-16T11:06:12;27.60;;;12.38;;
20482;SDS011;10400;53.198;6.592;2023-04-16T11:08:40;27.88;;;13.50;;
20482;SDS011;10400;53.198;6.592;2023-04-16T11:11:08;31.58;;;14.18;;
20482;SDS011;10400;53.198;6.592;2023-04-16T11:13:35;34.08;;;13.45;;
20482;SDS011;10400;53.198;6.592;2023-04-16T11:16:01;27.58;;;14.15;;
20482;SDS011;10400;53.198;6.592;2023-04-16T11:18:28;32.28;;;14.73;;
20482;SDS011;10400;53.198;6.592;2023-04-16T11:20:53;32.90;;;14.68;;
20482;SDS011;10400;53.198;6.592;2023-04-16T11:23:20;34.60;;;14.38;;
20482;SDS011;10400;53.198;6.592;2023-04-16T11:25:45;36.83;;;15.35;;
20482;SDS011;10400;53.198;6.592;2023-04-16T11:28:11;30.23;;;14.88;;
20482;SDS011;10400;53.198;6.592;2023-04-16T11:30:37;29.77;;;13.80;;
20482;SDS011;10400;53.198;6.592;2023-04-16T11:33:05;34.70;;;14.90;;
20482;SDS011;10400;53.198;6.592;2023-04-16T11:35:33;31.50;;;15.00;;
20482;SDS011;10400;53.198;6.592;2023-04-16T11:37:58;32.42;;;14.43;;
20482;SDS011;10400;53.198;6.592;2023-04-16T11:40:24;26.13;;;13.30;;
20482;SDS011;10400;53.198;6.592;2023-04-16T11:42:54;34.88;;;15.98;;
20482;SDS011;10400;53.198;6.592;2023-04-16T11:45:20;28.85;;;14.40;;
20482;SDS011;10400;53.198;6.592;2023-04-16T11:47:46;32.65;;;15.52;;
20482;SDS011;10400;53.198;6.592;2023-04-16T11:52:49;30.40;;;13.75;;
20482;SDS011;10400;53.198;6.592;2023-04-16T11:55:17;22.95;;;14.27;;
20482;SDS011;10400;53.198;6.592;2023-04-16T11:57:43;35.88;;;15.68;;
20482;SDS011;10400;53.198;6.592;2023-04-16T12:00:10;30.20;;;14.63;;
20482;SDS011;10400;53.198;6.592;2023-04-16T12:05:06;30.35;;;14.13;;
20482;SDS011;10400;53.198;6.592;2023-04-16T12:07:58;30.95;;;15.43;;
20482;SDS011;10400;53.198;6.592;2023-04-16T12:10:29;31.08;;;14.75;;
20482;SDS011;10400;53.198;6.592;2023-04-16T12:13:08;31.15;;;14.93;;
20482;SDS011;10400;53.198;6.592;2023-04-16T12:15:45;32.75;;;15.82;;
20482;SDS011;10400;53.198;6.592;2023-04-16T12:18:15;28.80;;;14.57;;
20482;SDS011;10400;53.198;6.592;2023-04-16T12:20:43;29.60;;;15.13;;
20482;SDS011;10400;53.198;6.592;2023-04-16T12:23:10;32.03;;;16.17;;
20482;SDS011;10400;53.198;6.592;2023-04-16T12:25:47;28.02;;;14.15;;
20482;SDS011;10400;53.198;6.592;2023-04-16T12:28:14;37.60;;;14.75;;
20482;SDS011;10400;53.198;6.592;2023-04-16T12:30:50;31.25;;;15.25;;
20482;SDS011;10400;53.198;6.592;2023-04-16T12:33:17;29.88;;;14.75;;
20482;SDS011;10400;53.198;6.592;2023-04-16T12:35:43;30.67;;;14.82;;
20482;SDS011;10400;53.198;6.592;2023-04-16T12:38:09;32.63;;;15.43;;
20482;SDS011;10400;53.198;6.592;2023-04-16T12:40:35;31.98;;;14.52;;
20482;SDS011;10400;53.198;6.592;2023-04-16T12:43:01;30.13;;;14.77;;
20482;SDS011;10400;53.198;6.592;2023-04-16T12:45:27;29.42;;;15.55;;
20482;SDS011;10400;53.198;6.592;2023-04-16T12:47:53;33.17;;;15.10;;
20482;SDS011;10400;53.198;6.592;2023-04-16T12:50:19;35.38;;;15.23;;
20482;SDS011;10400;53.198;6.592;2023-04-16T12:52:45;28.60;;;14.77;;
20482;SDS011;10400;53.198;6.592;2023-04-16T12:55:11;26.35;;;14.65;;
20482;SDS011;10400;53.198;6.592;2023-04-16T12:57:38;30.33;;;14.48;;
20482;SDS011;10400;53.198;6.592;2023-04-16T13:00:04;26.77;;;14.38;;
20482;SDS011;10400;53.198;6.592;2023-04-16T13:02:30;33.53;;;15.07;;
20482;SDS011;10400;53.198;6.592;2023-04-16T13:04:56;31.98;;;14.85;;
20482;SDS011;10400;53.198;6.592;2023-04-16T13:07:22;34.70;;;15.48;;
20482;SDS011;10400;53.198;6.592;2023-04-16T13:09:50;30.23;;;14.25;;
20482;SDS011;10400;53.198;6.592;2023-04-16T13:12:16;36.00;;;15.27;;
20482;SDS011;10400;53.198;6.592;2023-04-16T13:14:42;29.27;;;14.55;;
20482;SDS011;10400;53.198;6.592;2023-04-16T13:17:08;33.10;;;14.30;;
20482;SDS011;10400;53.198;6.592;2023-04-16T13:19:33;37.17;;;16.42;;
20482;SDS011;10400;53.198;6.592;2023-04-16T13:21:59;29.38;;;15.18;;
20482;SDS011;10400;53.198;6.592;2023-04-16T13:24:25;35.70;;;14.52;;
20482;SDS011;10400;53.198;6.592;2023-04-16T13:26:50;33.92;;;16.27;;
20482;SDS011;10400;53.198;6.592;2023-04-16T13:29:16;33.78;;;16.60;;
20482;SDS011;10400;53.198;6.592;2023-04-16T13:31:43;34.17;;;15.98;;
20482;SDS011;10400;53.198;6.592;2023-04-16T13:34:08;35.28;;;14.90;;
20482;SDS011;10400;53.198;6.592;2023-04-16T13:36:34;34.25;;;16.48;;
20482;SDS011;10400;53.198;6.592;2023-04-16T13:39:00;34.78;;;15.00;;
20482;SDS011;10400;53.198;6.592;2023-04-16T13:41:28;34.38;;;15.80;;
20482;SDS011;10400;53.198;6.592;2023-04-16T13:43:54;33.20;;;15.07;;
20482;SDS011;10400;53.198;6.592;2023-04-16T13:46:20;31.75;;;15.43;;
20482;SDS011;10400;53.198;6.592;2023-04-16T13:48:45;28.45;;;14.07;;
20482;SDS011;10400;53.198;6.592;2023-04-16T13:51:11;28.50;;;14.52;;
20482;SDS011;10400;53.198;6.592;2023-04-16T13:53:39;30.15;;;14.52;;
20482;SDS011;10400;53.198;6.592;2023-04-16T13:56:05;29.45;;;14.32;;
20482;SDS011;10400;53.198;6.592;2023-04-16T13:58:31;29.40;;;14.65;;
20482;SDS011;10400;53.198;6.592;2023-04-16T14:00:57;32.42;;;14.82;;
20482;SDS011;10400;53.198;6.592;2023-04-16T14:03:23;27.15;;;14.45;;
20482;SDS011;10400;53.198;6.592;2023-04-16T14:05:50;32.95;;;13.63;;
20482;SDS011;10400;53.198;6.592;2023-04-16T14:08:16;36.08;;;14.85;;
20482;SDS011;10400;53.198;6.592;2023-04-16T14:10:42;31.73;;;14.55;;
20482;SDS011;10400;53.198;6.592;2023-04-16T14:13:07;27.05;;;13.10;;
20482;SDS011;10400;53.198;6.592;2023-04-16T14:15:33;26.88;;;13.68;;
20482;SDS011;10400;53.198;6.592;2023-04-16T14:17:59;31.92;;;13.13;;
20482;SDS011;10400;53.198;6.592;2023-04-16T14:20:25;34.17;;;15.18;;
20482;SDS011;10400;53.198;6.592;2023-04-16T14:22:51;32.83;;;14.85;;
20482;SDS011;10400;53.198;6.592;2023-04-16T14:25:16;31.27;;;15.38;;
20482;SDS011;10400;53.198;6.592;2023-04-16T14:27:42;29.83;;;15.23;;